createdAt,value
2023-11-22T00:01:35.781Z,29.20
2023-11-22T00:04:05.064Z,30.50
2023-11-22T00:06:33.046Z,27.30
2023-11-22T00:09:00.888Z,28.50
2023-11-22T00:11:29.123Z,27.70
2023-11-22T00:13:58.601Z,27.10
2023-11-22T00:16:27.075Z,27.40
2023-11-22T00:18:54.917Z,30.40
2023-11-22T00:21:23.042Z,29.60
2023-11-22T00:23:51.062Z,30.00
2023-11-22T00:26:19.198Z,29.30
2023-11-22T00:28:50.915Z,32.70
2023-11-22T00:31:19.116Z,33.90
2023-11-22T00:33:47.994Z,31.80
2023-11-22T00:36:17.867Z,31.10
2023-11-22T00:38:46.988Z,29.20
2023-11-22T00:41:16.251Z,32.10
2023-11-22T00:43:44.350Z,34.80
2023-11-22T00:46:12.549Z,32.90
2023-11-22T00:48:40.596Z,35.40
2023-11-22T00:51:10.349Z,35.40
2023-11-22T00:53:38.260Z,39.00
2023-11-22T00:56:07.930Z,37.80
2023-11-22T00:58:35.843Z,40.00
2023-11-22T01:01:03.867Z,37.40
2023-11-22T01:03:31.884Z,33.80
2023-11-22T01:05:59.756Z,36.40
2023-11-22T01:08:27.611Z,35.50
2023-11-22T01:10:55.638Z,36.80
2023-11-22T01:13:23.750Z,34.20
2023-11-22T01:15:51.834Z,35.00
2023-11-22T01:18:20.608Z,34.70
2023-11-22T01:20:48.696Z,34.70
2023-11-22T01:23:16.848Z,34.30
2023-11-22T01:25:47.502Z,34.10
2023-11-22T01:28:16.070Z,33.30
2023-11-22T01:30:47.989Z,34.40
2023-11-22T01:33:17.223Z,35.10
2023-11-22T01:35:45.106Z,35.20
2023-11-22T01:38:13.021Z,35.50
2023-11-22T01:40:48.021Z,33.20
2023-11-22T01:43:19.822Z,35.10
2023-11-22T01:45:53.008Z,36.80
2023-11-22T01:48:21.083Z,34.60
2023-11-22T01:50:49.469Z,33.60
2023-11-22T01:53:20.104Z,33.70
2023-11-22T01:55:48.282Z,37.40
2023-11-22T01:58:16.390Z,33.70
2023-11-22T02:00:59.214Z,33.90
2023-11-22T02:03:27.751Z,36.40
2023-11-22T02:05:56.194Z,35.30
2023-11-22T02:08:24.291Z,39.00
2023-11-22T02:11:02.917Z,35.40
2023-11-22T02:13:34.453Z,35.70
2023-11-22T02:16:03.312Z,38.10
2023-11-22T02:18:31.674Z,36.00
2023-11-22T02:20:59.559Z,36.60
2023-11-22T02:23:28.133Z,34.80
2023-11-22T02:25:56.663Z,35.40
2023-11-22T02:28:24.492Z,34.30
2023-11-22T02:30:53.094Z,32.70
2023-11-22T02:33:20.944Z,32.60
2023-11-22T02:35:49.251Z,32.10
2023-11-22T02:38:19.610Z,31.90
2023-11-22T02:40:47.553Z,32.90
2023-11-22T02:43:15.381Z,35.30
2023-11-22T02:45:45.603Z,35.20
2023-11-22T02:48:15.081Z,33.10
2023-11-22T02:50:45.183Z,33.90
2023-11-22T02:53:14.073Z,35.00
2023-11-22T02:55:42.317Z,32.60
2023-11-22T02:58:10.245Z,34.60
2023-11-22T03:00:38.638Z,33.70
2023-11-22T03:03:11.593Z,35.70
2023-11-22T03:05:39.780Z,32.50
2023-11-22T03:08:09.060Z,34.40
2023-11-22T03:10:38.235Z,34.90
2023-11-22T03:13:06.778Z,37.30
2023-11-22T03:15:35.052Z,35.40
2023-11-22T03:18:03.407Z,36.00
2023-11-22T03:20:32.560Z,33.70
2023-11-22T03:23:01.692Z,34.50
2023-11-22T03:25:30.780Z,33.60
2023-11-22T03:27:58.902Z,36.00
2023-11-22T03:30:27.082Z,33.80
2023-11-22T03:32:55.922Z,35.10
2023-11-22T03:35:28.889Z,33.60
2023-11-22T03:37:57.123Z,33.30
2023-11-22T03:40:25.319Z,33.10
2023-11-22T03:42:53.473Z,33.40
2023-11-22T03:45:21.589Z,35.20
2023-11-22T03:47:49.448Z,32.20
2023-11-22T03:50:17.752Z,32.70
2023-11-22T03:52:45.761Z,35.00
2023-11-22T03:55:14.346Z,33.90
2023-11-22T03:57:42.633Z,32.60
2023-11-22T04:00:13.472Z,32.90
2023-11-22T04:02:41.671Z,34.80
2023-11-22T04:05:10.828Z,33.70
2023-11-22T04:07:40.778Z,35.30
2023-11-22T04:10:09.231Z,33.50
2023-11-22T04:12:38.223Z,35.60
2023-11-22T04:15:11.053Z,33.50
2023-11-22T04:17:40.521Z,34.40
2023-11-22T04:20:16.537Z,32.60
2023-11-22T04:22:49.458Z,32.90
2023-11-22T04:25:17.728Z,32.20
2023-11-22T04:27:45.819Z,32.90
2023-11-22T04:30:15.749Z,31.60
2023-11-22T04:32:44.093Z,34.20
2023-11-22T04:35:12.502Z,31.50
2023-11-22T04:37:40.439Z,36.60
2023-11-22T04:40:09.416Z,36.20
2023-11-22T04:42:38.531Z,36.10
2023-11-22T04:45:08.343Z,35.00
2023-11-22T04:47:36.730Z,34.00
2023-11-22T04:50:06.135Z,33.70
2023-11-22T04:52:34.207Z,33.00
2023-11-22T04:55:02.170Z,37.00
2023-11-22T04:57:30.356Z,31.90
2023-11-22T04:59:58.615Z,30.80
2023-11-22T05:02:28.395Z,29.10
2023-11-22T05:04:56.302Z,33.30
2023-11-22T05:07:27.368Z,41.30
2023-11-22T05:10:03.940Z,32.60
2023-11-22T05:12:32.089Z,27.40
2023-11-22T05:15:00.000Z,29.80
2023-11-22T05:17:27.981Z,26.50
2023-11-22T05:19:55.890Z,26.50
2023-11-22T05:22:24.275Z,28.20
2023-11-22T05:24:52.153Z,27.40
2023-11-22T05:27:22.164Z,25.50
2023-11-22T05:29:55.054Z,25.70
2023-11-22T05:32:30.493Z,21.80
2023-11-22T05:34:58.775Z,18.40
2023-11-22T05:37:27.733Z,15.70
2023-11-22T05:39:56.881Z,14.60
2023-11-22T05:42:26.248Z,16.50
2023-11-22T05:44:54.424Z,19.40
2023-11-22T05:47:22.329Z,16.50
2023-11-22T05:49:50.721Z,16.40
2023-11-22T05:52:18.857Z,17.40
2023-11-22T05:54:46.839Z,18.80
2023-11-22T05:57:14.709Z,18.60
2023-11-22T05:59:42.588Z,15.60
2023-11-22T06:02:10.666Z,15.60
2023-11-22T06:04:39.571Z,18.00
2023-11-22T06:07:09.888Z,15.60
2023-11-22T06:09:37.700Z,15.90
2023-11-22T06:12:06.624Z,19.00
2023-11-22T06:14:34.605Z,16.90
2023-11-22T06:17:02.838Z,20.60
2023-11-22T06:19:30.719Z,22.20
2023-11-22T06:22:03.907Z,19.10
2023-11-22T06:24:37.515Z,21.10
2023-11-22T06:27:06.938Z,20.40
2023-11-22T06:29:34.902Z,18.00
2023-11-22T06:32:02.658Z,17.70
2023-11-22T06:34:30.601Z,20.70
2023-11-22T06:36:58.986Z,17.80
2023-11-22T06:39:28.334Z,18.40
2023-11-22T06:41:56.561Z,17.60
2023-11-22T06:44:24.679Z,18.80
2023-11-22T06:46:53.316Z,18.50
2023-11-22T06:49:22.208Z,18.70
2023-11-22T06:51:50.388Z,20.50
2023-11-22T06:54:19.996Z,23.00
2023-11-22T06:56:51.708Z,22.40
2023-11-22T06:59:20.303Z,23.50
2023-11-22T07:01:48.243Z,24.90
2023-11-22T07:04:16.265Z,24.20
2023-11-22T07:06:45.692Z,26.10
2023-11-22T07:09:15.323Z,25.70
2023-11-22T07:11:45.877Z,26.10
2023-11-22T07:14:13.864Z,26.30
2023-11-22T07:16:42.402Z,25.60
2023-11-22T07:19:14.042Z,29.30
2023-11-22T07:21:42.359Z,26.40
2023-11-22T07:24:10.609Z,25.60
2023-11-22T07:26:41.698Z,28.00
2023-11-22T07:29:11.756Z,28.60
2023-11-22T07:31:42.009Z,18.20
2023-11-22T07:34:14.432Z,17.50
2023-11-22T07:36:42.333Z,16.20
2023-11-22T07:39:13.392Z,17.40
2023-11-22T07:41:43.135Z,16.00
2023-11-22T07:44:14.632Z,15.50
2023-11-22T07:46:45.411Z,14.60
2023-11-22T07:49:15.261Z,14.70
2023-11-22T07:53:57.172Z,17.00
2023-11-22T07:56:25.365Z,18.50
2023-11-22T07:58:53.223Z,19.50
2023-11-22T08:01:24.935Z,18.10
2023-11-22T08:03:53.454Z,21.80
2023-11-22T08:06:22.759Z,21.70
2023-11-22T08:08:55.633Z,23.40
2023-11-22T08:11:23.627Z,22.10
2023-11-22T08:13:51.477Z,23.30
2023-11-22T08:16:21.739Z,24.00
2023-11-22T08:18:51.016Z,21.10
2023-11-22T08:21:19.897Z,21.20
2023-11-22T08:23:51.298Z,20.10
2023-11-22T08:26:23.033Z,21.50
2023-11-22T08:28:58.174Z,20.30
2023-11-22T08:31:29.336Z,20.10
2023-11-22T08:33:58.174Z,19.40
2023-11-22T08:36:26.886Z,19.80
2023-11-22T08:38:55.280Z,21.80
2023-11-22T08:41:25.281Z,19.50
2023-11-22T08:43:53.737Z,21.70
2023-11-22T08:46:21.630Z,20.90
2023-11-22T08:48:49.883Z,17.70
2023-11-22T08:51:19.788Z,14.50
2023-11-22T08:53:48.018Z,15.60
2023-11-22T08:56:17.398Z,15.60
2023-11-22T08:58:45.839Z,14.40
2023-11-22T09:01:16.134Z,14.30
2023-11-22T09:03:45.408Z,15.70
2023-11-22T09:06:14.568Z,15.80
2023-11-22T09:08:42.769Z,15.90
2023-11-22T09:11:11.687Z,16.90
2023-11-22T09:13:49.868Z,16.60
2023-11-22T09:16:19.842Z,16.70
2023-11-22T09:18:49.566Z,15.40
2023-11-22T09:21:20.622Z,14.60
2023-11-22T09:23:53.747Z,15.30
2023-11-22T09:26:23.007Z,14.40
2023-11-22T09:28:51.273Z,12.90
2023-11-22T09:31:21.900Z,14.40
2023-11-22T09:33:49.808Z,12.60
2023-11-22T09:36:19.540Z,13.20
2023-11-22T09:38:48.801Z,14.70
2023-11-22T09:41:20.064Z,14.10
2023-11-22T09:44:00.652Z,15.20
2023-11-22T09:46:34.263Z,12.50
2023-11-22T09:49:05.541Z,13.80
2023-11-22T09:51:44.401Z,14.00
2023-11-22T09:54:15.727Z,14.70
2023-11-22T09:56:54.670Z,12.90
2023-11-22T09:59:24.936Z,14.60
2023-11-22T10:02:01.057Z,13.60
2023-11-22T10:04:30.631Z,15.50
2023-11-22T10:07:01.570Z,12.50
2023-11-22T10:09:31.311Z,13.10
2023-11-22T10:12:04.171Z,14.30
2023-11-22T10:14:46.115Z,13.50
2023-11-22T10:17:31.734Z,10.70
2023-11-22T10:20:12.630Z,11.90
2023-11-22T10:22:50.536Z,11.30
2023-11-22T10:25:25.509Z,11.30
2023-11-22T10:27:57.048Z,11.50
2023-11-22T10:30:30.342Z,10.80
2023-11-22T10:32:59.011Z,10.20
2023-11-22T10:35:47.453Z,10.40
2023-11-22T10:38:19.855Z,10.50
2023-11-22T10:40:53.668Z,9.60
2023-11-22T10:43:33.894Z,10.30
2023-11-22T10:46:13.683Z,9.30
2023-11-22T10:48:42.044Z,10.20
2023-11-22T10:51:10.998Z,9.30
2023-11-22T10:53:41.693Z,8.70
2023-11-22T10:56:29.717Z,10.90
2023-11-22T10:59:15.603Z,8.50
2023-11-22T11:01:54.550Z,10.40
2023-11-22T11:04:33.818Z,11.50
2023-11-22T11:07:17.250Z,9.80
2023-11-22T11:09:52.451Z,11.60
2023-11-22T11:12:29.583Z,11.10
2023-11-22T11:15:22.946Z,9.50
2023-11-22T11:18:02.844Z,9.90
2023-11-22T11:20:49.164Z,10.20
2023-11-22T11:23:30.148Z,9.00
2023-11-22T11:26:02.030Z,9.90
2023-11-22T11:28:47.316Z,11.10
2023-11-22T11:31:15.846Z,10.00
2023-11-22T11:33:49.890Z,10.50
2023-11-22T11:36:33.362Z,10.20
2023-11-22T11:39:16.964Z,11.60
2023-11-22T11:41:50.579Z,12.10
2023-11-22T11:44:25.742Z,10.40
2023-11-22T11:46:59.401Z,10.30
2023-11-22T11:49:30.667Z,10.20
2023-11-22T11:52:01.413Z,13.10
2023-11-22T11:54:29.372Z,12.80
2023-11-22T11:57:03.573Z,11.10
2023-11-22T11:59:42.042Z,13.30
2023-11-22T12:02:28.188Z,12.20
2023-11-22T12:05:11.161Z,11.20
2023-11-22T12:07:48.181Z,13.20
2023-11-22T12:10:24.455Z,11.10
2023-11-22T12:13:11.160Z,11.00
2023-11-22T12:15:43.731Z,11.90
2023-11-22T12:18:19.003Z,11.00
2023-11-22T12:21:00.837Z,11.20
2023-11-22T12:23:31.431Z,10.40
2023-11-22T12:25:59.791Z,12.20
2023-11-22T12:28:34.643Z,10.20
2023-11-22T12:31:16.600Z,11.80
2023-11-22T12:33:44.887Z,12.60
2023-11-22T12:36:17.878Z,11.20
2023-11-22T12:39:00.295Z,10.50
2023-11-22T12:41:33.091Z,11.20
2023-11-22T12:44:11.783Z,13.00
2023-11-22T12:47:03.138Z,12.50
2023-11-22T12:49:31.205Z,12.70
2023-11-22T12:51:59.236Z,13.80
2023-11-22T12:54:27.705Z,13.40
2023-11-22T12:57:07.408Z,12.90
2023-11-22T12:59:35.765Z,12.00
2023-11-22T13:02:04.435Z,12.20
2023-11-22T13:04:32.768Z,12.10
2023-11-22T13:07:01.863Z,14.10
2023-11-22T13:09:38.653Z,11.20
2023-11-22T13:12:12.415Z,11.90
2023-11-22T13:14:45.749Z,12.60
2023-11-22T13:17:26.378Z,11.40
2023-11-22T13:20:01.592Z,11.80
2023-11-22T13:22:44.418Z,12.80
2023-11-22T13:25:14.929Z,12.10
2023-11-22T13:27:42.700Z,12.30
2023-11-22T13:30:11.584Z,13.90
2023-11-22T13:32:42.846Z,13.00
2023-11-22T13:35:19.324Z,22.20
2023-11-22T13:37:53.934Z,23.10
2023-11-22T13:40:34.696Z,13.40
2023-11-22T13:43:05.832Z,14.70
2023-11-22T13:45:47.849Z,16.00
2023-11-22T13:48:20.997Z,18.20
2023-11-22T13:53:23.723Z,15.60
2023-11-22T13:55:53.896Z,18.00
2023-11-22T13:58:21.823Z,18.90
2023-11-22T14:00:51.473Z,21.80
2023-11-22T14:03:40.917Z,23.10
2023-11-22T14:06:25.974Z,28.60
2023-11-22T14:09:04.571Z,26.30
2023-11-22T14:11:39.038Z,25.50
2023-11-22T14:14:14.634Z,28.20
2023-11-22T14:16:46.239Z,26.30
2023-11-22T14:19:18.694Z,24.60
2023-11-22T14:21:46.905Z,23.50
2023-11-22T14:24:14.732Z,25.50
2023-11-22T14:26:42.694Z,28.50
2023-11-22T14:29:10.774Z,30.40
2023-11-22T14:31:38.871Z,34.50
2023-11-22T14:34:07.033Z,39.20
2023-11-22T14:36:35.294Z,41.50
2023-11-22T14:39:14.023Z,40.00
2023-11-22T14:41:43.697Z,39.90
2023-11-22T14:44:11.600Z,40.70
2023-11-22T14:46:39.687Z,35.20
2023-11-22T14:49:10.092Z,38.40
2023-11-22T14:51:49.838Z,38.20
2023-11-22T14:54:18.872Z,38.50
2023-11-22T14:56:47.464Z,39.10
2023-11-22T14:59:15.383Z,37.80
2023-11-22T15:01:45.734Z,37.20
2023-11-22T15:04:20.571Z,38.50
2023-11-22T15:06:54.248Z,41.20
2023-11-22T15:09:28.504Z,40.30
2023-11-22T15:11:56.560Z,37.80
2023-11-22T15:14:24.844Z,38.40
2023-11-22T15:16:53.622Z,37.00
2023-11-22T15:19:26.481Z,42.20
2023-11-22T15:21:59.210Z,41.80
2023-11-22T15:24:27.893Z,43.50
2023-11-22T15:27:09.858Z,44.40
2023-11-22T15:29:42.775Z,43.50
2023-11-22T15:32:10.798Z,45.30
2023-11-22T15:34:39.294Z,41.90
2023-11-22T15:37:08.218Z,42.90
2023-11-22T15:39:36.555Z,49.00
2023-11-22T15:42:07.000Z,39.70
2023-11-22T15:44:38.192Z,40.60
2023-11-22T15:47:12.881Z,39.00
2023-11-22T15:49:43.178Z,39.90
2023-11-22T15:52:14.120Z,41.20
2023-11-22T15:54:42.089Z,41.80
2023-11-22T15:57:10.783Z,49.70
2023-11-22T15:59:40.137Z,41.30
2023-11-22T16:02:08.660Z,42.00
2023-11-22T16:04:38.378Z,44.10
2023-11-22T16:07:07.563Z,40.50
2023-11-22T16:09:40.092Z,36.60
2023-11-22T16:12:08.846Z,39.30
2023-11-22T16:14:37.097Z,38.60
2023-11-22T16:17:06.416Z,41.10
2023-11-22T16:19:34.170Z,42.30
2023-11-22T16:22:02.064Z,38.60
2023-11-22T16:24:30.111Z,39.80
2023-11-22T16:26:58.598Z,42.80
2023-11-22T16:29:26.894Z,42.90
2023-11-22T16:31:54.882Z,41.50
2023-11-22T16:34:23.320Z,49.90
2023-11-22T16:36:56.418Z,45.00
2023-11-22T16:39:29.798Z,40.30
2023-11-22T16:42:01.008Z,36.40
2023-11-22T16:44:30.027Z,35.70
2023-11-22T16:47:00.145Z,35.00
2023-11-22T16:49:28.541Z,34.60
2023-11-22T16:51:56.924Z,32.90
2023-11-22T16:54:24.788Z,30.30
2023-11-22T16:56:52.829Z,27.50
2023-11-22T16:59:20.842Z,25.90
2023-11-22T17:01:49.138Z,24.80
2023-11-22T17:04:18.093Z,25.20
2023-11-22T17:06:45.966Z,24.30
2023-11-22T17:09:17.395Z,22.30
2023-11-22T17:11:46.325Z,21.40
2023-11-22T17:14:14.582Z,20.30
2023-11-22T17:16:45.237Z,20.40
2023-11-22T17:19:14.415Z,20.10
2023-11-22T17:21:42.691Z,21.40
2023-11-22T17:24:11.584Z,17.70
2023-11-22T17:26:40.083Z,19.50
2023-11-22T17:29:08.156Z,18.00
2023-11-22T17:31:36.521Z,16.00
2023-11-22T17:34:04.918Z,17.90
2023-11-22T17:36:33.548Z,17.50
2023-11-22T17:39:01.584Z,17.50
2023-11-22T17:41:29.880Z,17.30
2023-11-22T17:43:58.735Z,18.00
2023-11-22T17:46:28.007Z,16.30
2023-11-22T17:48:58.186Z,18.00
2023-11-22T17:51:28.367Z,19.70
2023-11-22T17:53:56.651Z,18.50
2023-11-22T17:56:25.260Z,17.20
2023-11-22T17:58:53.300Z,17.80
2023-11-22T18:01:21.894Z,15.80
2023-11-22T18:03:52.501Z,17.30
2023-11-22T18:06:20.929Z,17.00
2023-11-22T18:08:48.951Z,16.60
2023-11-22T18:11:17.596Z,17.50
2023-11-22T18:13:46.229Z,16.60
2023-11-22T18:16:14.016Z,19.00
2023-11-22T18:18:42.630Z,17.70
2023-11-22T18:21:11.911Z,17.80
2023-11-22T18:23:39.988Z,18.60
2023-11-22T18:26:07.821Z,19.50
2023-11-22T18:28:36.332Z,16.00
2023-11-22T18:31:07.458Z,17.90
2023-11-22T18:33:36.455Z,17.60
2023-11-22T18:38:50.761Z,16.80
2023-11-22T18:41:20.840Z,16.50
2023-11-22T18:43:49.444Z,18.00
2023-11-22T18:46:18.268Z,17.30
2023-11-22T18:48:46.882Z,18.10
2023-11-22T18:51:28.676Z,21.30
2023-11-22T18:53:57.507Z,15.90
2023-11-22T18:56:26.556Z,19.00
2023-11-22T18:58:56.458Z,16.50
2023-11-22T19:01:24.667Z,17.20
2023-11-22T19:03:52.827Z,18.00
2023-11-22T19:06:20.919Z,16.90
2023-11-22T19:08:49.318Z,16.30
2023-11-22T19:11:18.712Z,17.00
2023-11-22T19:13:47.056Z,16.90
2023-11-22T19:16:15.278Z,17.00
2023-11-22T19:18:46.942Z,17.60
2023-11-22T19:21:23.045Z,18.60
2023-11-22T19:23:56.388Z,20.20
2023-11-22T19:26:24.932Z,20.30
2023-11-22T19:28:53.629Z,17.10
2023-11-22T19:31:24.189Z,18.60
2023-11-22T19:33:52.314Z,16.40
2023-11-22T19:36:24.467Z,17.90
2023-11-22T19:38:55.934Z,16.50
2023-11-22T19:41:24.993Z,16.30
2023-11-22T19:43:53.855Z,15.50
2023-11-22T19:46:21.840Z,16.90
2023-11-22T19:48:49.921Z,15.90
2023-11-22T19:51:18.957Z,15.10
2023-11-22T19:53:47.089Z,18.10
2023-11-22T19:56:15.523Z,15.60
2023-11-22T19:58:43.380Z,14.90
2023-11-22T20:01:11.488Z,15.20
2023-11-22T20:03:39.465Z,15.40
2023-11-22T20:06:07.450Z,15.50
2023-11-22T20:08:37.211Z,14.60
2023-11-22T20:12:17.782Z,15.70
2023-11-22T20:14:46.012Z,16.80
2023-11-22T20:17:13.946Z,16.60
2023-11-22T20:19:41.882Z,14.20
2023-11-22T20:22:13.682Z,14.20
2023-11-22T20:24:41.925Z,13.70
2023-11-22T20:27:09.844Z,14.80
2023-11-22T20:29:40.025Z,14.50
2023-11-22T20:32:08.084Z,14.80
2023-11-22T20:34:36.017Z,13.00
2023-11-22T20:37:05.146Z,16.90
2023-11-22T20:39:33.731Z,14.70
2023-11-22T20:42:01.624Z,14.20
2023-11-22T20:44:29.669Z,16.90
2023-11-22T20:46:57.951Z,16.60
2023-11-22T20:49:27.508Z,15.60
2023-11-22T20:51:55.733Z,15.40
2023-11-22T20:54:23.600Z,17.80
2023-11-22T20:56:51.788Z,16.90
2023-11-22T20:59:19.739Z,17.90
2023-11-22T21:01:49.398Z,16.40
2023-11-22T21:04:17.528Z,16.10
2023-11-22T21:06:46.747Z,18.10
2023-11-22T21:09:15.021Z,16.30
2023-11-22T21:11:43.441Z,18.10
2023-11-22T21:14:11.912Z,16.30
2023-11-22T21:16:44.193Z,17.30
2023-11-22T21:19:15.116Z,18.40
2023-11-22T21:21:43.247Z,16.20
2023-11-22T21:24:11.413Z,17.80
2023-11-22T21:26:39.615Z,18.60
2023-11-22T21:29:07.867Z,18.50
2023-11-22T21:31:35.733Z,21.70
2023-11-22T21:34:04.150Z,20.10
2023-11-22T21:36:36.916Z,22.30
2023-11-22T21:39:13.926Z,23.50
2023-11-22T21:41:50.481Z,23.50
2023-11-22T21:44:21.703Z,32.00
2023-11-22T21:46:49.640Z,30.10
2023-11-22T21:49:17.874Z,37.60
2023-11-22T21:51:48.201Z,38.30
2023-11-22T21:54:16.150Z,45.80
2023-11-22T21:56:44.823Z,47.70
2023-11-22T21:59:13.463Z,50.10
2023-11-22T22:01:42.343Z,56.10
2023-11-22T22:04:10.980Z,53.70
2023-11-22T22:06:39.458Z,52.80
2023-11-22T22:09:18.042Z,52.30
2023-11-22T22:11:56.119Z,49.00
2023-11-22T22:14:25.524Z,53.00
2023-11-22T22:16:54.487Z,52.60
2023-11-22T22:19:22.980Z,54.10
2023-11-22T22:21:50.931Z,52.10
2023-11-22T22:24:19.072Z,55.10
2023-11-22T22:26:47.317Z,56.20
2023-11-22T22:29:15.350Z,55.30
2023-11-22T22:31:43.120Z,57.40
2023-11-22T22:34:10.985Z,60.00
2023-11-22T22:36:40.531Z,61.90
2023-11-22T22:39:08.808Z,59.00
2023-11-22T22:41:36.770Z,59.10
2023-11-22T22:44:05.833Z,56.40
2023-11-22T22:46:34.473Z,57.00
2023-11-22T22:49:03.006Z,44.70
2023-11-22T22:51:32.705Z,28.20
2023-11-22T22:54:04.417Z,21.20
2023-11-22T22:56:32.741Z,21.50
2023-11-22T22:59:01.289Z,20.00
2023-11-22T23:01:31.634Z,22.60
2023-11-22T23:03:59.900Z,23.60
2023-11-22T23:06:28.204Z,22.30
2023-11-22T23:08:57.363Z,22.30
2023-11-22T23:11:26.138Z,24.20
2023-11-22T23:13:54.059Z,23.40
2023-11-22T23:16:22.042Z,22.50
2023-11-22T23:18:57.966Z,22.60
2023-11-22T23:21:29.181Z,23.50
2023-11-22T23:23:57.535Z,22.70
2023-11-22T23:26:27.073Z,23.20
2023-11-22T23:28:56.055Z,23.20
2023-11-22T23:31:24.189Z,23.80
2023-11-22T23:33:54.366Z,22.30
2023-11-22T23:36:23.927Z,32.40
2023-11-22T23:38:52.207Z,45.00
2023-11-22T23:41:20.255Z,53.20
2023-11-22T23:43:48.120Z,58.30
2023-11-22T23:46:16.233Z,67.60
2023-11-22T23:48:44.751Z,73.10
2023-11-22T23:51:12.952Z,74.80
2023-11-22T23:53:41.268Z,73.80
2023-11-22T23:56:11.763Z,76.90
2023-11-22T23:58:41.084Z,74.30
